createdAt,value
2018-06-19T00:01:24.785Z,98916.92
2018-06-19T00:03:56.585Z,98917.53
2018-06-19T00:06:28.229Z,98913.63
2018-06-19T00:09:02.676Z,98911.12
2018-06-19T00:11:34.421Z,98910.25
2018-06-19T00:14:05.989Z,98917.34
2018-06-19T00:16:37.159Z,98910.09
2018-06-19T00:19:10.814Z,98907.44
2018-06-19T00:21:51.722Z,98907.12
2018-06-19T00:24:23.985Z,98902.08
2018-06-19T00:26:57.110Z,98901.30
2018-06-19T00:29:28.617Z,98904.67
2018-06-19T00:32:00.416Z,98908.56
2018-06-19T00:34:34.229Z,98904.72
2018-06-19T00:37:06.806Z,98906.20
2018-06-19T00:39:39.281Z,98905.75
2018-06-19T00:42:10.964Z,98896.83
2018-06-19T00:44:45.181Z,98902.31
2018-06-19T00:47:16.961Z,98902.91
2018-06-19T00:49:48.957Z,98908.07
2018-06-19T00:52:20.503Z,98904.02
2018-06-19T00:54:53.355Z,98908.17
2018-06-19T00:57:24.883Z,98905.73
2018-06-19T00:59:57.207Z,98902.34
2018-06-19T01:02:29.281Z,98902.04
2018-06-19T01:05:02.679Z,98903.43
2018-06-19T01:07:35.996Z,98900.12
2018-06-19T01:10:07.404Z,98909.22
2018-06-19T01:12:39.908Z,98913.20
2018-06-19T01:15:11.062Z,98912.83
2018-06-19T01:17:47.505Z,98912.78
2018-06-19T01:20:23.603Z,98911.05
2018-06-19T01:22:57.409Z,98919.97
2018-06-19T01:25:28.685Z,98917.97
2018-06-19T01:28:00.170Z,98923.36
2018-06-19T01:30:31.215Z,98922.55
2018-06-19T01:33:02.713Z,98919.98
2018-06-19T01:35:36.316Z,98922.56
2018-06-19T01:38:08.665Z,98926.45
2018-06-19T01:40:40.085Z,98920.03
2018-06-19T01:43:12.746Z,98920.56
2018-06-19T01:45:44.866Z,98925.06
2018-06-19T01:48:17.399Z,98924.73
2018-06-19T01:50:49.881Z,98918.97
2018-06-19T01:53:22.028Z,98915.88
2018-06-19T01:55:54.702Z,98926.64
2018-06-19T01:58:26.935Z,98923.52
2018-06-19T02:00:58.725Z,98927.75
2018-06-19T02:03:30.845Z,98927.31
2018-06-19T02:06:03.202Z,98929.53
2018-06-19T02:08:34.492Z,98929.21
2018-06-19T02:11:06.020Z,98927.14
2018-06-19T02:13:38.147Z,98928.47
2018-06-19T02:16:09.831Z,98932.66
2018-06-19T02:18:43.920Z,98933.08
2018-06-19T02:21:15.471Z,98933.02
2018-06-19T02:23:47.320Z,98933.70
2018-06-19T02:26:19.500Z,98939.13
2018-06-19T02:28:51.057Z,98931.14
2018-06-19T02:31:23.658Z,98935.73
2018-06-19T02:33:55.295Z,98936.78
2018-06-19T02:36:26.729Z,98939.81
2018-06-19T02:38:59.253Z,98940.23
2018-06-19T02:41:31.568Z,98940.92
2018-06-19T02:44:02.859Z,98937.92
2018-06-19T02:46:34.720Z,98950.66
2018-06-19T02:49:09.023Z,98948.84
2018-06-19T02:51:40.455Z,98947.79
2018-06-19T02:54:12.517Z,98945.78
2018-06-19T02:56:43.696Z,98947.94
2018-06-19T02:59:16.076Z,98947.16
2018-06-19T03:01:48.242Z,98950.77
2018-06-19T03:04:20.059Z,98953.36
2018-06-19T03:06:51.251Z,98947.78
2018-06-19T03:09:24.162Z,98949.68
2018-06-19T03:11:56.265Z,98949.80
2018-06-19T03:14:27.526Z,98951.73
2018-06-19T03:16:59.939Z,98958.00
2018-06-19T03:19:34.925Z,98957.16
2018-06-19T03:22:06.529Z,98956.47
2018-06-19T03:24:41.042Z,98955.30
2018-06-19T03:27:12.602Z,98955.92
2018-06-19T03:29:44.156Z,98953.08
2018-06-19T03:32:16.151Z,98957.44
2018-06-19T03:34:48.038Z,98957.16
2018-06-19T03:37:19.953Z,98951.67
2018-06-19T03:39:52.117Z,98960.35
2018-06-19T03:42:24.459Z,98961.89
2018-06-19T03:44:57.170Z,98963.27
2018-06-19T03:47:29.402Z,98969.11
2018-06-19T03:50:00.412Z,98967.17
2018-06-19T03:52:31.299Z,98970.13
2018-06-19T03:55:02.388Z,98972.36
2018-06-19T03:57:33.798Z,98975.00
2018-06-19T04:00:04.933Z,98973.05
2018-06-19T04:02:36.025Z,98975.91
2018-06-19T04:05:06.988Z,98980.48
2018-06-19T04:07:37.902Z,98975.91
2018-06-19T04:10:08.929Z,98987.82
2018-06-19T04:12:41.107Z,98986.80
2018-06-19T04:15:12.409Z,98987.75
2018-06-19T04:17:43.512Z,98990.90
2018-06-19T04:20:15.036Z,98992.98
2018-06-19T04:22:46.209Z,98994.43
2018-06-19T04:25:16.593Z,98998.31
2018-06-19T04:27:47.799Z,98997.81
2018-06-19T04:30:18.783Z,99005.48
2018-06-19T04:32:49.995Z,99006.45
2018-06-19T04:35:22.562Z,99013.08
2018-06-19T04:37:53.894Z,99010.25
2018-06-19T04:40:25.985Z,99013.70
2018-06-19T04:42:57.340Z,99011.14
2018-06-19T04:45:29.105Z,99019.45
2018-06-19T04:48:01.355Z,99016.59
2018-06-19T04:50:33.227Z,99024.89
2018-06-19T04:53:05.552Z,99023.78
2018-06-19T04:55:37.006Z,99026.20
2018-06-19T04:58:08.269Z,99026.34
2018-06-19T05:00:39.168Z,99027.28
2018-06-19T05:03:10.569Z,99027.75
2018-06-19T05:05:41.655Z,99027.44
2018-06-19T05:08:12.525Z,99020.83
2018-06-19T05:10:44.241Z,99025.59
2018-06-19T05:13:15.225Z,99027.91
2018-06-19T05:15:46.589Z,99027.05
2018-06-19T05:18:19.397Z,99029.34
2018-06-19T05:20:50.592Z,99032.11
2018-06-19T05:23:23.405Z,99040.07
2018-06-19T05:25:54.532Z,99042.02
2018-06-19T05:28:25.663Z,99045.10
2018-06-19T05:30:56.878Z,99052.48
2018-06-19T05:33:28.693Z,99048.09
2018-06-19T05:36:01.059Z,99050.88
2018-06-19T05:38:33.192Z,99050.74
2018-06-19T05:41:04.325Z,99046.80
2018-06-19T05:43:35.811Z,99052.80
2018-06-19T05:46:07.208Z,99054.48
2018-06-19T05:48:38.383Z,99053.38
2018-06-19T05:51:10.180Z,99059.70
2018-06-19T05:53:41.145Z,99057.88
2018-06-19T05:56:12.556Z,99057.86
2018-06-19T05:58:44.815Z,99057.52
2018-06-19T06:01:15.839Z,99067.45
2018-06-19T06:03:47.235Z,99068.45
2018-06-19T06:06:18.943Z,99066.73
2018-06-19T06:08:50.165Z,99074.34
2018-06-19T06:11:21.454Z,99078.11
2018-06-19T06:13:52.538Z,99071.86
2018-06-19T06:16:24.188Z,99078.46
2018-06-19T06:18:55.337Z,99074.67
2018-06-19T06:21:26.542Z,99076.06
2018-06-19T06:23:57.664Z,99081.48
2018-06-19T06:26:28.859Z,99092.59
2018-06-19T06:29:00.539Z,99088.41
2018-06-19T06:31:31.891Z,99082.79
2018-06-19T06:34:04.191Z,99088.35
2018-06-19T06:36:35.589Z,99089.09
2018-06-19T06:39:11.055Z,99085.50
2018-06-19T06:41:43.277Z,99084.69
2018-06-19T06:44:15.196Z,99083.95
2018-06-19T06:46:47.048Z,99079.36
2018-06-19T06:49:19.349Z,99082.31
2018-06-19T06:51:50.669Z,99086.12
2018-06-19T06:54:23.099Z,99082.25
2018-06-19T06:56:58.659Z,99085.89
2018-06-19T06:59:30.709Z,99084.03
2018-06-19T07:02:02.368Z,99081.70
2018-06-19T07:04:34.699Z,99077.66
2018-06-19T07:07:06.322Z,99087.19
2018-06-19T07:09:38.492Z,99084.52
2018-06-19T07:12:09.611Z,99076.86
2018-06-19T07:14:40.090Z,99076.73
2018-06-19T07:17:11.712Z,99073.30
2018-06-19T07:19:42.834Z,99074.52
2018-06-19T07:22:14.340Z,99072.16
2018-06-19T07:24:46.188Z,99069.58
2018-06-19T07:27:17.861Z,99070.02
2018-06-19T07:29:50.481Z,99076.23
2018-06-19T07:32:22.156Z,99070.67
2018-06-19T07:34:54.301Z,99068.96
2018-06-19T07:37:26.308Z,99067.08
2018-06-19T07:39:58.675Z,99064.39
2018-06-19T07:42:30.039Z,99066.62
2018-06-19T07:45:01.576Z,99066.91
2018-06-19T07:47:34.675Z,99070.55
2018-06-19T07:50:06.784Z,99064.03
2018-06-19T07:52:39.386Z,99066.34
2018-06-19T07:55:10.674Z,99062.63
2018-06-19T07:57:41.930Z,99067.27
2018-06-19T08:00:13.657Z,99072.02
2018-06-19T08:02:44.986Z,99066.34
2018-06-19T08:05:16.941Z,99063.84
2018-06-19T08:07:50.090Z,99067.48
2018-06-19T08:10:23.028Z,99066.34
2018-06-19T08:12:54.346Z,99060.34
2018-06-19T08:15:28.690Z,99062.66
2018-06-19T08:18:00.566Z,99060.12
2018-06-19T08:20:32.494Z,99055.05
2018-06-19T08:23:04.360Z,99064.52
2018-06-19T08:25:35.716Z,99057.20
2018-06-19T08:28:06.945Z,99056.36
2018-06-19T08:30:38.449Z,99053.64
2018-06-19T08:33:12.058Z,99053.32
2018-06-19T08:35:44.489Z,99051.32
2018-06-19T08:38:19.269Z,99053.11
2018-06-19T08:40:51.156Z,99046.44
2018-06-19T08:43:23.428Z,99047.35
2018-06-19T08:45:56.658Z,99040.72
2018-06-19T08:48:28.329Z,99041.41
2018-06-19T08:50:59.640Z,99044.79
2018-06-19T08:53:32.209Z,99036.86
2018-06-19T08:56:07.222Z,99036.79
2018-06-19T08:58:40.855Z,99034.91
2018-06-19T09:01:12.043Z,99037.73
2018-06-19T09:03:43.141Z,99037.78
2018-06-19T09:06:17.008Z,99035.88
2018-06-19T09:08:51.122Z,99045.93
2018-06-19T09:11:24.323Z,99032.36
2018-06-19T09:13:55.667Z,99049.55
2018-06-19T09:16:26.786Z,99037.98
2018-06-19T09:18:58.588Z,99031.37
2018-06-19T09:21:30.077Z,99033.12
2018-06-19T09:24:07.832Z,99034.22
2018-06-19T09:26:40.064Z,99026.77
2018-06-19T09:29:11.241Z,99034.13
2018-06-19T09:31:43.317Z,99032.55
2018-06-19T09:34:14.612Z,99030.06
2018-06-19T09:36:46.790Z,99038.89
2018-06-19T09:39:21.710Z,99029.20
2018-06-19T09:41:53.167Z,99031.27
2018-06-19T09:44:25.010Z,99030.73
2018-06-19T09:47:02.179Z,99026.88
2018-06-19T09:49:33.804Z,99036.47
2018-06-19T09:52:06.831Z,99029.30
2018-06-19T09:54:41.415Z,99018.83
2018-06-19T09:57:12.899Z,99024.25
2018-06-19T09:59:44.640Z,99032.47
2018-06-19T10:02:17.123Z,99025.19
2018-06-19T10:04:48.559Z,99024.55
2018-06-19T10:07:22.775Z,99024.87
2018-06-19T10:09:54.757Z,99036.42
2018-06-19T10:12:25.487Z,99025.23
2018-06-19T10:14:56.608Z,99021.44
2018-06-19T10:17:28.591Z,99024.31
2018-06-19T10:20:00.000Z,99023.27
2018-06-19T10:22:31.838Z,99016.19
2018-06-19T10:25:03.591Z,99031.85
2018-06-19T10:27:35.017Z,99022.66
2018-06-19T10:30:08.068Z,99026.30
2018-06-19T10:32:42.416Z,99029.84
2018-06-19T10:35:14.861Z,99013.63
2018-06-19T10:37:46.594Z,99034.18
2018-06-19T10:40:17.868Z,99031.45
2018-06-19T10:42:49.192Z,99026.30
2018-06-19T10:45:20.339Z,99031.19
2018-06-19T10:47:52.590Z,99031.22
2018-06-19T10:50:24.012Z,99027.77
2018-06-19T10:52:55.809Z,99031.28
2018-06-19T10:55:27.974Z,99016.80
2018-06-19T10:58:00.141Z,99019.66
2018-06-19T11:00:31.822Z,99012.64
2018-06-19T11:03:04.448Z,98999.55
2018-06-19T11:05:36.438Z,99004.46
2018-06-19T11:08:08.496Z,98996.05
2018-06-19T11:10:39.731Z,99002.86
2018-06-19T11:13:11.199Z,99003.96
2018-06-19T11:15:42.213Z,99002.59
2018-06-19T11:18:13.268Z,99002.27
2018-06-19T11:20:44.477Z,99001.44
2018-06-19T11:23:16.551Z,99008.83
2018-06-19T11:25:47.917Z,99006.22
2018-06-19T11:28:19.477Z,98997.34
2018-06-19T11:30:50.827Z,98994.03
2018-06-19T11:33:22.949Z,98994.66
2018-06-19T11:35:54.193Z,98996.16
2018-06-19T11:38:27.305Z,98996.27
2018-06-19T11:40:59.303Z,98999.59
2018-06-19T11:43:30.853Z,98994.48
2018-06-19T11:46:02.101Z,98990.70
2018-06-19T11:48:33.855Z,98995.47
2018-06-19T11:51:06.351Z,98988.37
2018-06-19T11:53:42.092Z,99004.19
2018-06-19T11:56:14.828Z,99003.38
2018-06-19T11:58:46.902Z,98998.94
2018-06-19T12:01:19.001Z,99005.16
2018-06-19T12:03:50.950Z,99000.38
2018-06-19T12:06:23.009Z,98992.74
2018-06-19T12:08:54.978Z,98991.41
2018-06-19T12:11:29.550Z,98980.61
2018-06-19T12:14:01.246Z,98983.95
2018-06-19T12:16:32.932Z,98973.27
2018-06-19T12:19:04.230Z,98981.59
2018-06-19T12:21:35.545Z,98972.27
2018-06-19T12:24:07.783Z,98971.94
2018-06-19T12:26:39.707Z,98971.50
2018-06-19T12:29:12.647Z,98966.23
2018-06-19T12:31:44.077Z,98965.14
2018-06-19T12:34:17.797Z,98965.75
2018-06-19T12:36:49.139Z,98961.59
2018-06-19T12:39:20.362Z,98963.45
2018-06-19T12:41:51.949Z,98973.05
2018-06-19T12:44:25.072Z,98972.30
2018-06-19T12:46:59.404Z,98971.91
2018-06-19T12:51:03.295Z,98979.71
2018-06-19T12:53:54.525Z,98980.75
2018-06-19T12:56:26.197Z,98975.77
2018-06-19T12:58:58.115Z,98979.11
2018-06-19T13:01:29.751Z,98976.39
2018-06-19T13:04:17.519Z,98971.23
2018-06-19T13:06:49.245Z,98973.95
2018-06-19T13:09:21.541Z,98971.70
2018-06-19T13:11:55.509Z,98969.38
2018-06-19T13:14:40.298Z,98963.28
2018-06-19T13:17:27.654Z,98961.95
2018-06-19T13:20:15.535Z,98963.19
2018-06-19T13:22:47.584Z,98961.33
2018-06-19T13:25:19.102Z,98961.03
2018-06-19T13:27:51.599Z,98964.84
2018-06-19T13:30:39.139Z,98965.28
2018-06-19T13:33:10.748Z,98957.44
2018-06-19T13:35:43.634Z,98960.01
2018-06-19T13:38:16.242Z,98962.98
2018-06-19T13:41:18.649Z,98946.44
2018-06-19T13:44:09.479Z,98955.34
2018-06-19T13:46:42.080Z,98965.75
2018-06-19T13:49:15.019Z,98964.44
2018-06-19T13:51:46.920Z,98953.47
2018-06-19T13:54:18.200Z,98953.24
2018-06-19T13:57:27.998Z,98955.80
2018-06-19T14:00:01.288Z,98948.75
2018-06-19T14:02:32.750Z,98951.34
2018-06-19T14:05:04.457Z,98938.16
2018-06-19T14:07:43.005Z,98939.21
2018-06-19T14:10:32.074Z,98934.75
2018-06-19T14:13:03.597Z,98936.73
2018-06-19T14:15:38.679Z,98933.48
2018-06-19T14:18:10.738Z,98931.44
2018-06-19T14:20:43.105Z,98930.86
2018-06-19T14:23:16.324Z,98934.86
2018-06-19T14:25:47.901Z,98928.66
2018-06-19T14:28:25.435Z,98926.16
2018-06-19T14:30:57.164Z,98920.76
2018-06-19T14:33:29.417Z,98921.63
2018-06-19T14:36:00.792Z,98928.88
2018-06-19T14:38:32.007Z,98927.45
2018-06-19T14:41:03.983Z,98917.87
2018-06-19T14:43:35.601Z,98914.10
2018-06-19T14:46:06.866Z,98910.00
2018-06-19T14:48:38.527Z,98905.99
2018-06-19T14:51:10.288Z,98906.63
2018-06-19T14:53:41.881Z,98912.42
2018-06-19T14:56:14.969Z,98902.78
2018-06-19T14:58:45.958Z,98903.09
2018-06-19T15:01:17.335Z,98896.16
2018-06-19T15:03:48.622Z,98898.30
2018-06-19T15:06:20.945Z,98897.64
2018-06-19T15:08:53.251Z,98893.82
2018-06-19T15:11:25.886Z,98894.73
2018-06-19T15:13:58.399Z,98892.61
2018-06-19T15:16:30.052Z,98897.02
2018-06-19T15:19:02.125Z,98892.84
2018-06-19T15:21:34.633Z,98886.38
2018-06-19T15:24:05.980Z,98889.45
2018-06-19T15:26:38.056Z,98889.67
2018-06-19T15:29:09.875Z,98891.95
2018-06-19T15:31:42.284Z,98886.97
2018-06-19T15:34:15.239Z,98883.63
2018-06-19T15:36:48.334Z,98881.29
2018-06-19T15:39:20.018Z,98880.00
2018-06-19T15:41:51.499Z,98876.53
2018-06-19T15:44:24.005Z,98877.26
2018-06-19T15:46:56.242Z,98869.92
2018-06-19T15:49:27.459Z,98865.27
2018-06-19T15:52:00.572Z,98870.16
2018-06-19T15:54:33.747Z,98869.88
2018-06-19T15:57:05.009Z,98872.48
2018-06-19T15:59:36.248Z,98867.15
2018-06-19T16:02:07.696Z,98861.22
2018-06-19T16:04:38.998Z,98862.54
2018-06-19T16:07:10.637Z,98867.84
2018-06-19T16:09:42.613Z,98863.55
2018-06-19T16:12:13.758Z,98866.50
2018-06-19T16:14:45.152Z,98864.84
2018-06-19T16:17:16.659Z,98866.27
2018-06-19T16:19:48.208Z,98865.81
2018-06-19T16:22:19.353Z,98858.67
2018-06-19T16:24:50.549Z,98857.14
2018-06-19T16:27:23.751Z,98857.83
2018-06-19T16:29:55.173Z,98860.05
2018-06-19T16:32:26.473Z,98862.62
2018-06-19T16:34:57.684Z,98863.20
2018-06-19T16:37:29.904Z,98853.27
2018-06-19T16:40:01.226Z,98860.88
2018-06-19T16:42:33.922Z,98861.36
2018-06-19T16:45:05.362Z,98869.62
2018-06-19T16:47:36.806Z,98873.79
2018-06-19T16:50:08.102Z,98867.80
2018-06-19T16:52:39.479Z,98867.43
2018-06-19T16:55:10.742Z,98864.28
2018-06-19T16:57:42.186Z,98867.50
2018-06-19T17:00:14.510Z,98865.63
2018-06-19T17:02:45.428Z,98865.75
2018-06-19T17:05:16.402Z,98871.39
2018-06-19T17:07:47.527Z,98871.80
2018-06-19T17:10:18.762Z,98871.35
2018-06-19T17:12:50.606Z,98873.03
2018-06-19T17:15:21.819Z,98871.02
2018-06-19T17:17:53.606Z,98873.87
2018-06-19T17:20:24.272Z,98875.87
2018-06-19T17:22:55.453Z,98874.45
2018-06-19T17:25:26.620Z,98877.13
2018-06-19T17:27:57.787Z,98871.90
2018-06-19T17:30:30.014Z,98872.50
2018-06-19T17:33:02.660Z,98873.77
2018-06-19T17:35:34.763Z,98879.68
2018-06-19T17:38:06.415Z,98883.44
2018-06-19T17:40:38.115Z,98892.39
2018-06-19T17:43:10.206Z,98896.58
2018-06-19T17:45:44.248Z,98891.52
2018-06-19T17:48:16.779Z,98892.10
2018-06-19T17:50:48.861Z,98893.51
2018-06-19T17:53:20.946Z,98899.59
2018-06-19T17:55:53.061Z,98899.45
2018-06-19T17:58:25.654Z,98900.84
2018-06-19T18:00:58.340Z,98907.39
2018-06-19T18:03:32.086Z,98908.14
2018-06-19T18:06:04.673Z,98919.77
2018-06-19T18:08:38.225Z,98920.87
2018-06-19T18:11:11.074Z,98916.66
2018-06-19T18:13:44.383Z,98918.35
2018-06-19T18:16:17.705Z,98916.95
2018-06-19T18:18:50.469Z,98918.23
2018-06-19T18:21:23.036Z,98917.78
2018-06-19T18:23:56.129Z,98918.03
2018-06-19T18:26:28.892Z,98921.67
2018-06-19T18:29:02.209Z,98923.38
2018-06-19T18:31:35.640Z,98928.38
2018-06-19T18:34:08.976Z,98926.14
2018-06-19T18:36:40.591Z,98927.18
2018-06-19T18:39:13.754Z,98929.05
2018-06-19T18:41:47.490Z,98928.66
2018-06-19T18:44:21.061Z,98932.59
2018-06-19T18:46:54.240Z,98929.80
2018-06-19T18:49:27.484Z,98936.64
2018-06-19T18:52:00.253Z,98934.14
2018-06-19T18:54:34.196Z,98942.20
2018-06-19T18:57:07.839Z,98935.75
2018-06-19T18:59:42.096Z,98943.48
2018-06-19T19:02:15.136Z,98943.80
2018-06-19T19:04:49.168Z,98948.31
2018-06-19T19:07:22.027Z,98952.12
2018-06-19T19:09:59.047Z,98955.50
2018-06-19T19:12:33.286Z,98963.84
2018-06-19T19:15:11.056Z,98964.05
2018-06-19T19:17:47.995Z,98963.55
2018-06-19T19:20:23.345Z,98976.38
2018-06-19T19:22:57.000Z,98979.54
2018-06-19T19:25:31.717Z,98981.69
2018-06-19T19:29:09.314Z,98983.38
2018-06-19T19:31:44.270Z,98993.01
2018-06-19T19:34:18.640Z,98991.25
2018-06-19T19:36:56.795Z,98997.03
2018-06-19T19:39:31.598Z,99001.83
2018-06-19T19:42:06.111Z,98996.73
2018-06-19T19:44:38.988Z,99007.34
2018-06-19T19:48:17.287Z,99002.72
2018-06-19T19:50:50.431Z,99005.23
2018-06-19T19:53:26.057Z,99006.72
2018-06-19T19:56:06.634Z,99006.22
2018-06-19T19:58:49.133Z,99007.50
2018-06-19T20:01:26.561Z,99012.45
2018-06-19T20:03:59.913Z,99008.08
2018-06-19T20:06:33.655Z,99015.90
2018-06-19T20:09:08.514Z,99008.44
2018-06-19T20:14:30.482Z,99016.30
2018-06-19T20:17:12.064Z,99017.73
2018-06-19T20:19:51.013Z,99022.08
2018-06-19T20:22:26.345Z,99020.03
2018-06-19T20:25:00.385Z,99027.69
2018-06-19T20:27:34.175Z,99025.41
2018-06-19T20:30:07.262Z,99026.63
2018-06-19T20:32:40.328Z,99023.36
2018-06-19T20:35:19.428Z,99024.51
2018-06-19T20:37:52.733Z,99027.02
2018-06-19T20:40:26.096Z,99027.06
2018-06-19T20:43:00.128Z,99025.27
2018-06-19T20:45:34.253Z,99028.24
2018-06-19T20:48:08.349Z,99029.42
2018-06-19T20:50:42.095Z,99040.09
2018-06-19T20:53:15.727Z,99043.16
2018-06-19T20:55:48.983Z,99040.66
2018-06-19T20:58:21.236Z,99048.34
2018-06-19T21:00:54.584Z,99053.20
2018-06-19T21:03:27.843Z,99044.62
2018-06-19T21:06:00.496Z,99053.27
2018-06-19T21:08:41.036Z,99045.77
2018-06-19T21:11:15.091Z,99057.55
2018-06-19T21:13:47.691Z,99049.13
2018-06-19T21:16:21.330Z,99057.55
2018-06-19T21:18:55.941Z,99050.23
2018-06-19T21:21:29.084Z,99046.15
2018-06-19T21:24:01.125Z,99055.34
2018-06-19T21:26:33.969Z,99054.57
2018-06-19T21:29:06.668Z,99059.12
2018-06-19T21:31:39.051Z,99061.49
2018-06-19T21:34:12.146Z,99059.51
2018-06-19T21:36:44.999Z,99066.50
2018-06-19T21:39:16.883Z,99063.52
2018-06-19T21:41:50.092Z,99071.37
2018-06-19T21:44:23.300Z,99075.59
2018-06-19T21:46:56.322Z,99071.60
2018-06-19T21:49:28.214Z,99070.83
2018-06-19T21:52:00.999Z,99081.50
2018-06-19T21:54:35.304Z,99081.33
2018-06-19T21:57:06.997Z,99071.51
2018-06-19T21:59:38.586Z,99075.02
2018-06-19T22:02:11.246Z,99077.86
2018-06-19T22:04:44.449Z,99080.05
2018-06-19T22:07:17.524Z,99065.40
2018-06-19T22:09:48.801Z,99070.23
2018-06-19T22:12:20.159Z,99075.23
2018-06-19T22:14:51.240Z,99077.23
2018-06-19T22:17:22.531Z,99077.23
2018-06-19T22:19:54.238Z,99081.89
2018-06-19T22:22:26.340Z,99083.06
2018-06-19T22:24:58.431Z,99087.72
2018-06-19T22:27:29.622Z,99082.73
2018-06-19T22:30:00.795Z,99087.39
2018-06-19T22:32:31.735Z,99089.56
2018-06-19T22:35:03.031Z,99090.39
2018-06-19T22:37:34.856Z,99088.23
2018-06-19T22:40:06.730Z,99081.08
2018-06-19T22:42:37.938Z,99081.09
2018-06-19T22:45:09.391Z,99083.44
2018-06-19T22:47:42.884Z,99072.64
2018-06-19T22:50:14.103Z,99083.27
2018-06-19T22:52:45.393Z,99074.29
2018-06-19T22:55:17.877Z,99080.44
2018-06-19T22:57:49.227Z,99082.78
2018-06-19T23:00:22.000Z,99080.61
2018-06-19T23:02:56.950Z,99084.42
2018-06-19T23:05:28.335Z,99074.64
2018-06-19T23:07:59.107Z,99078.77
2018-06-19T23:10:30.598Z,99076.78
2018-06-19T23:13:03.169Z,99076.97
2018-06-19T23:15:34.910Z,99072.14
2018-06-19T23:18:06.755Z,99080.59
2018-06-19T23:20:37.990Z,99073.08
2018-06-19T23:23:09.489Z,99076.58
2018-06-19T23:25:40.759Z,99075.90
2018-06-19T23:28:12.239Z,99066.42
2018-06-19T23:30:43.701Z,99072.40
2018-06-19T23:33:14.795Z,99072.08
2018-06-19T23:35:46.024Z,99072.38
2018-06-19T23:38:17.304Z,99066.23
2018-06-19T23:40:48.354Z,99073.04
2018-06-19T23:43:20.993Z,99070.20
2018-06-19T23:45:52.297Z,99059.59
2018-06-19T23:48:23.166Z,99062.92
2018-06-19T23:50:54.424Z,99072.69
2018-06-19T23:53:25.660Z,99074.67
2018-06-19T23:55:56.375Z,99079.79
2018-06-19T23:58:27.568Z,99073.00
